Messwerte Puerto Escondido

Temperatur

Temperatur
°C
1573758000 13.00 13.00 30
1573761600 14.00 14.00 31
1573765200 15.00 15.00 31
1573768800 16.00 16.00 31
1573772400 17.00 17.00 31
1573776000 18.00 18.00 30
1573779600 19.00 19.00
1573783200 20.00 20.00 28
1573786800 21.00 21.00 27
1573790400 22.00 22.00 26
1573794000 23.00 23.00 25
1573797600 0.00 0.00 25
1573801200 1.00 1.00
1573804800 2.00 2.00
1573808400 3.00 3.00
1573812000 4.00 4.00
1573815600 5.00 5.00
1573819200 6.00 6.00 24
1573822800 7.00 7.00 23
1573826400 8.00 8.00 24
1573830000 9.00 9.00 27
1573833600 10.00 10.00 30
1573837200 11.00 11.00 30
1573840800 12.00 12.00 30

Aktuellste Messwerte

Wettercharakter
Wetter: recht sonnig
Temperatur
30 °C
Feuchtigkeit
70 %
Wind
10 km/hWindrichtung: Südwest
Luftdruck
1014 hPa
Messzeit: 15. November 2019, 13.00Datenquelle: METAR

Weitere Messstationen in der Nähe

Messstation Temperatur Entfernung
Oaxaca de Juárez 24 °C 137 km
Acapulco 30 °C 322 km
Minatitlán 24 °C 349 km
Puebla 22 °C 372 km
Veracruz 23 °C 376 km
Cuernavaca 25 °C 405 km
Tuxtla Gutiérrez 25 °C 432 km

Wind

Windrichtung Böen Mittelwind
° km/h km/h
1573758000 13.00 12.00 - 13.00 230° 10
1573761600 14.00 13.00 - 14.00 240° 10
1573765200 15.00 14.00 - 15.00 230° 10
1573768800 16.00 15.00 - 16.00 220° 10
1573772400 17.00 16.00 - 17.00 220° 10
1573776000 18.00 17.00 - 18.00 260° 5
1573779600 19.00 18.00 - 19.00
1573783200 20.00 19.00 - 20.00 30° 5
1573786800 21.00 20.00 - 21.00 20° 15
1573790400 22.00 21.00 - 22.00 80° 10
1573794000 23.00 22.00 - 23.00 80° 15
1573797600 0.00 23.00 - 0.00 70° 10
1573801200 1.00 0.00 - 1.00
1573804800 2.00 1.00 - 2.00
1573808400 3.00 2.00 - 3.00
1573812000 4.00 3.00 - 4.00
1573815600 5.00 4.00 - 5.00
1573819200 6.00 5.00 - 6.00 80° 10
1573822800 7.00 6.00 - 7.00 60° 10
1573826400 8.00 7.00 - 8.00 80° 10
1573830000 9.00 8.00 - 9.00 60° 10
1573833600 10.00 9.00 - 10.00 0
1573837200 11.00 10.00 - 11.00 50° 10
1573840800 12.00 11.00 - 12.00 240° 15

Ihre Wetterstation

Fehlt Ihre Wetterstation auf unserem Portal?

Schreiben Sie an network@meteonews.ch